Terminal Aerodrome Forecast
Issued by NWS

Home | Current Version | Previous Version | Text Only | Print | Product List | Glossary On
Versions: 1 2 3 4 5 6 7 8 9 10 11 12 13 14 15 16 17
949
FTUS46 KMFR 201754
TAFLMT
TAF
KLMT 201754Z 2018/2118 14013G20KT P6SM SCT050 OVC070
     FM202000 15012KT 3SM -SHSN BKN025 OVC050
     FM210200 19007KT P6SM -SHSN OVC015
     FM211400 17014G20KT 2SM -SN OVC020=

USA.gov is the U.S. government's official web portal to all federal, state and local government web resources and services.